Airfield :
LOGIN :

Register | Disclaimer

   EN    FR    IT 

 










Legend :    VFR   Marginal VFR   IFR   Intensive IFR   Very Intensive IFR
Visi :
Ceiling :
>= 8 km
>= 3000ft
5 to 8 km
1000 to 3000 ft
1500m to 5 km
500 to 1000 ft
800 to 1500m
200 to 500 ft
< 800m
< 200 ft
Symbols :   Thunderstorms  Fog  Heavy snow  Heavy precipitations  Wind > 20 kt
SIGMETs :     Misc.  Thunderstorms  Icing  Turbulence  Mountain Waves  Volcanic Ashes






- Airport Elevation : 1947 ft
- IATA code : OBF


EDMO - Oberpfaffenhofen

CURRENT METAR :
  • 232050Z AUTO 25004KT 180V270 9999 // FEW073/// 14/13 Q1013

EXPIRED METARs :
  • 232020Z AUTO 14003KT 080V180 9999 // FEW084/// BKN110/// BKN130/// 14/13 Q1011
  • 231950Z AUTO 07006KT 030V100 9999 // FEW017/// SCT065/// OVC090/// 15/14 Q1011
  • 231920Z AUTO 11011KT 5000 // FEW017/// BKN020/// OVC054/// 15/14 Q1008
  • 231850Z AUTO 12011KT 7000 // SCT027/// OVC069/// 17/14 Q1007
  • 231820Z AUTO 35006KT 310V020 8000 // SCT034/// BKN076/// OVC120/// 20/17 Q1010

TAF TAF EDMO
Valid from the 23 at 18:00 until the 24 at 03:00 UTC


231700Z 2318/2403 02010KT 9999 SCT035
TEMPO 2318/2322 24020G35KT 2000 +TSRAGR SCT012 BKN020CB
BECMG 2320/2322 24007KT BKN005



MET'MAP, your aeronautical weather chart ! - Copyright ORBIFLY December 2007 - Disclaimer

ORBIFLY MET'MAP TEAM :

Programming & Development : Alexandra Zaïnal
Concept & original design : Baudouin d'Aumeries
Assistance for programming : Marc-Olivier Méhu
Technical & hardware support : Manuel Goepfert

Contact : metmap@orbifly.com




SOURCES & CREDITS :

   NOAA